sensor_id;sensor_type;location;lat;lon;timestamp;temperature;humidity
3976;DHT22;2002;48.812;9.180;2022-11-15T00:00:25;17.40;4.40
3976;DHT22;2002;48.812;9.180;2022-11-15T00:02:55;17.30;5.10
3976;DHT22;2002;48.812;9.180;2022-11-15T00:05:21;17.40;3.30
3976;DHT22;2002;48.812;9.180;2022-11-15T00:07:46;17.30;6.20
3976;DHT22;2002;48.812;9.180;2022-11-15T00:10:12;17.40;4.10
3976;DHT22;2002;48.812;9.180;2022-11-15T00:12:37;17.30;4.70
3976;DHT22;2002;48.812;9.180;2022-11-15T00:15:03;17.40;4.40
3976;DHT22;2002;48.812;9.180;2022-11-15T00:17:29;17.40;3.20
3976;DHT22;2002;48.812;9.180;2022-11-15T00:19:55;17.40;2.60
3976;DHT22;2002;48.812;9.180;2022-11-15T00:22:21;17.40;4.60
3976;DHT22;2002;48.812;9.180;2022-11-15T00:24:46;17.40;5.60
3976;DHT22;2002;48.812;9.180;2022-11-15T00:27:12;17.40;3.50
3976;DHT22;2002;48.812;9.180;2022-11-15T00:29:37;17.30;4.30
3976;DHT22;2002;48.812;9.180;2022-11-15T00:32:04;17.40;3.70
3976;DHT22;2002;48.812;9.180;2022-11-15T00:34:30;17.30;3.30
3976;DHT22;2002;48.812;9.180;2022-11-15T00:36:55;17.40;5.70
3976;DHT22;2002;48.812;9.180;2022-11-15T00:39:21;17.30;4.20
3976;DHT22;2002;48.812;9.180;2022-11-15T00:41:47;17.30;3.80
3976;DHT22;2002;48.812;9.180;2022-11-15T00:44:13;17.30;3.70
3976;DHT22;2002;48.812;9.180;2022-11-15T00:46:38;17.30;8.10
3976;DHT22;2002;48.812;9.180;2022-11-15T00:49:04;17.30;4.80
3976;DHT22;2002;48.812;9.180;2022-11-15T00:51:30;17.30;6.00
3976;DHT22;2002;48.812;9.180;2022-11-15T00:53:55;17.30;3.90
3976;DHT22;2002;48.812;9.180;2022-11-15T00:56:21;17.30;5.40
3976;DHT22;2002;48.812;9.180;2022-11-15T00:58:46;17.30;4.10
3976;DHT22;2002;48.812;9.180;2022-11-15T01:01:14;17.30;5.30
3976;DHT22;2002;48.812;9.180;2022-11-15T01:03:40;17.30;5.30
3976;DHT22;2002;48.812;9.180;2022-11-15T01:06:07;17.30;6.10
3976;DHT22;2002;48.812;9.180;2022-11-15T01:08:33;17.30;5.20
3976;DHT22;2002;48.812;9.180;2022-11-15T01:11:03;17.30;5.20
3976;DHT22;2002;48.812;9.180;2022-11-15T01:13:31;17.30;4.80
3976;DHT22;2002;48.812;9.180;2022-11-15T01:15:57;17.30;4.20
3976;DHT22;2002;48.812;9.180;2022-11-15T01:18:22;17.30;16.30
3976;DHT22;2002;48.812;9.180;2022-11-15T01:20:48;17.30;5.90
3976;DHT22;2002;48.812;9.180;2022-11-15T01:23:14;17.30;3.50
3976;DHT22;2002;48.812;9.180;2022-11-15T01:25:39;17.30;6.60
3976;DHT22;2002;48.812;9.180;2022-11-15T01:28:05;17.30;8.50
3976;DHT22;2002;48.812;9.180;2022-11-15T01:30:30;17.30;6.30
3976;DHT22;2002;48.812;9.180;2022-11-15T01:32:56;17.30;5.50
3976;DHT22;2002;48.812;9.180;2022-11-15T01:35:21;17.30;5.50
3976;DHT22;2002;48.812;9.180;2022-11-15T01:37:47;17.30;6.40
3976;DHT22;2002;48.812;9.180;2022-11-15T01:40:13;17.30;7.40
3976;DHT22;2002;48.812;9.180;2022-11-15T01:42:38;17.30;4.50
3976;DHT22;2002;48.812;9.180;2022-11-15T01:45:04;17.30;3.40
3976;DHT22;2002;48.812;9.180;2022-11-15T01:47:38;17.30;5.70
3976;DHT22;2002;48.812;9.180;2022-11-15T01:50:09;17.30;3.10
3976;DHT22;2002;48.812;9.180;2022-11-15T01:52:37;17.30;3.60
3976;DHT22;2002;48.812;9.180;2022-11-15T01:55:09;17.30;4.90
3976;DHT22;2002;48.812;9.180;2022-11-15T01:57:37;17.30;9.10
3976;DHT22;2002;48.812;9.180;2022-11-15T02:00:04;17.30;5.90
3976;DHT22;2002;48.812;9.180;2022-11-15T02:02:31;17.30;6.60
3976;DHT22;2002;48.812;9.180;2022-11-15T02:04:57;17.40;8.60
3976;DHT22;2002;48.812;9.180;2022-11-15T02:07:23;17.30;10.00
3976;DHT22;2002;48.812;9.180;2022-11-15T02:09:49;17.40;18.50
3976;DHT22;2002;48.812;9.180;2022-11-15T02:12:19;17.30;6.00
3976;DHT22;2002;48.812;9.180;2022-11-15T02:14:51;17.30;7.30
3976;DHT22;2002;48.812;9.180;2022-11-15T02:17:42;17.30;7.00
3976;DHT22;2002;48.812;9.180;2022-11-15T02:31:42;17.30;4.90
3976;DHT22;2002;48.812;9.180;2022-11-15T02:34:33;17.20;5.30
3976;DHT22;2002;48.812;9.180;2022-11-15T02:37:07;17.20;6.10
3976;DHT22;2002;48.812;9.180;2022-11-15T02:39:56;17.20;4.10
3976;DHT22;2002;48.812;9.180;2022-11-15T02:42:26;17.20;5.40
3976;DHT22;2002;48.812;9.180;2022-11-15T02:45:19;17.20;6.20
3976;DHT22;2002;48.812;9.180;2022-11-15T02:47:50;17.20;5.70
3976;DHT22;2002;48.812;9.180;2022-11-15T02:50:20;17.20;5.50
3976;DHT22;2002;48.812;9.180;2022-11-15T02:52:48;17.20;7.70
3976;DHT22;2002;48.812;9.180;2022-11-15T02:55:32;17.20;6.50
3976;DHT22;2002;48.812;9.180;2022-11-15T03:06:21;17.10;15.30
3976;DHT22;2002;48.812;9.180;2022-11-15T03:09:10;17.10;5.40
3976;DHT22;2002;48.812;9.180;2022-11-15T03:11:42;17.10;11.10
3976;DHT22;2002;48.812;9.180;2022-11-15T03:14:23;17.10;7.80
3976;DHT22;2002;48.812;9.180;2022-11-15T03:17:17;17.10;8.50
3976;DHT22;2002;48.812;9.180;2022-11-15T03:19:50;17.10;6.90
3976;DHT22;2002;48.812;9.180;2022-11-15T03:22:18;17.10;7.20
3976;DHT22;2002;48.812;9.180;2022-11-15T03:24:47;17.10;8.10
3976;DHT22;2002;48.812;9.180;2022-11-15T03:27:19;17.10;6.90
3976;DHT22;2002;48.812;9.180;2022-11-15T03:30:00;17.10;11.20
3976;DHT22;2002;48.812;9.180;2022-11-15T03:32:29;17.10;10.50
3976;DHT22;2002;48.812;9.180;2022-11-15T03:35:03;17.10;7.40
3976;DHT22;2002;48.812;9.180;2022-11-15T03:37:53;17.10;6.10
3976;DHT22;2002;48.812;9.180;2022-11-15T03:40:29;17.10;5.80
3976;DHT22;2002;48.812;9.180;2022-11-15T03:43:22;17.10;8.90
3976;DHT22;2002;48.812;9.180;2022-11-15T03:46:16;17.10;9.00
3976;DHT22;2002;48.812;9.180;2022-11-15T03:48:50;17.10;6.60
3976;DHT22;2002;48.812;9.180;2022-11-15T03:51:17;17.10;9.50
3976;DHT22;2002;48.812;9.180;2022-11-15T03:53:43;17.00;6.60
3976;DHT22;2002;48.812;9.180;2022-11-15T03:56:09;17.00;6.10
3976;DHT22;2002;48.812;9.180;2022-11-15T03:58:35;17.10;6.90
3976;DHT22;2002;48.812;9.180;2022-11-15T04:01:00;17.10;7.40
3976;DHT22;2002;48.812;9.180;2022-11-15T04:03:26;17.10;7.20
3976;DHT22;2002;48.812;9.180;2022-11-15T04:05:51;17.10;8.20
3976;DHT22;2002;48.812;9.180;2022-11-15T04:08:17;17.00;9.10
3976;DHT22;2002;48.812;9.180;2022-11-15T04:10:42;17.00;6.40
3976;DHT22;2002;48.812;9.180;2022-11-15T04:13:08;17.10;5.50
3976;DHT22;2002;48.812;9.180;2022-11-15T04:15:34;17.00;6.80
3976;DHT22;2002;48.812;9.180;2022-11-15T04:18:00;17.00;7.60
3976;DHT22;2002;48.812;9.180;2022-11-15T04:20:28;17.00;7.40
3976;DHT22;2002;48.812;9.180;2022-11-15T04:23:20;17.00;6.80
3976;DHT22;2002;48.812;9.180;2022-11-15T04:26:06;17.00;9.60
3976;DHT22;2002;48.812;9.180;2022-11-15T04:28:33;17.00;7.60
3976;DHT22;2002;48.812;9.180;2022-11-15T04:30:59;17.10;4.90
3976;DHT22;2002;48.812;9.180;2022-11-15T04:33:25;17.00;6.30
3976;DHT22;2002;48.812;9.180;2022-11-15T04:35:51;17.10;6.60
3976;DHT22;2002;48.812;9.180;2022-11-15T04:38:36;17.10;7.20
3976;DHT22;2002;48.812;9.180;2022-11-15T04:41:01;17.10;6.10
3976;DHT22;2002;48.812;9.180;2022-11-15T04:43:27;17.10;7.60
3976;DHT22;2002;48.812;9.180;2022-11-15T04:45:53;17.10;6.30
3976;DHT22;2002;48.812;9.180;2022-11-15T04:48:19;17.10;6.80
3976;DHT22;2002;48.812;9.180;2022-11-15T04:50:44;17.10;5.90
3976;DHT22;2002;48.812;9.180;2022-11-15T04:53:10;17.10;7.30
3976;DHT22;2002;48.812;9.180;2022-11-15T04:55:35;17.10;9.70
3976;DHT22;2002;48.812;9.180;2022-11-15T04:58:01;17.10;6.70
3976;DHT22;2002;48.812;9.180;2022-11-15T05:00:28;17.10;5.90
3976;DHT22;2002;48.812;9.180;2022-11-15T05:02:55;17.10;7.50
3976;DHT22;2002;48.812;9.180;2022-11-15T05:05:39;17.10;5.40
3976;DHT22;2002;48.812;9.180;2022-11-15T05:08:05;17.10;5.30
3976;DHT22;2002;48.812;9.180;2022-11-15T05:10:30;17.10;7.40
3976;DHT22;2002;48.812;9.180;2022-11-15T05:12:56;17.10;6.10
3976;DHT22;2002;48.812;9.180;2022-11-15T05:15:21;17.10;7.10
3976;DHT22;2002;48.812;9.180;2022-11-15T05:17:47;17.10;7.20
3976;DHT22;2002;48.812;9.180;2022-11-15T05:20:13;17.20;7.60
3976;DHT22;2002;48.812;9.180;2022-11-15T05:22:38;17.20;6.30
3976;DHT22;2002;48.812;9.180;2022-11-15T05:25:04;17.20;5.90
3976;DHT22;2002;48.812;9.180;2022-11-15T05:27:30;17.20;5.10
3976;DHT22;2002;48.812;9.180;2022-11-15T05:29:56;17.20;4.80
3976;DHT22;2002;48.812;9.180;2022-11-15T05:32:21;17.20;5.80
3976;DHT22;2002;48.812;9.180;2022-11-15T05:34:47;17.20;7.20
3976;DHT22;2002;48.812;9.180;2022-11-15T05:37:13;17.20;3.20
3976;DHT22;2002;48.812;9.180;2022-11-15T05:39:39;17.20;5.90
3976;DHT22;2002;48.812;9.180;2022-11-15T05:42:06;17.30;4.70
3976;DHT22;2002;48.812;9.180;2022-11-15T05:44:33;17.30;3.70
3976;DHT22;2002;48.812;9.180;2022-11-15T05:46:59;17.30;4.80
3976;DHT22;2002;48.812;9.180;2022-11-15T05:49:29;17.30;4.20
3976;DHT22;2002;48.812;9.180;2022-11-15T05:51:56;17.30;2.90
3976;DHT22;2002;48.812;9.180;2022-11-15T05:54:23;17.30;3.70
3976;DHT22;2002;48.812;9.180;2022-11-15T05:56:50;17.30;7.00
3976;DHT22;2002;48.812;9.180;2022-11-15T05:59:16;17.30;5.60
3976;DHT22;2002;48.812;9.180;2022-11-15T06:01:42;17.30;5.20
3976;DHT22;2002;48.812;9.180;2022-11-15T06:04:08;17.40;3.90
3976;DHT22;2002;48.812;9.180;2022-11-15T06:06:33;17.40;4.60
3976;DHT22;2002;48.812;9.180;2022-11-15T06:08:59;17.40;4.00
3976;DHT22;2002;48.812;9.180;2022-11-15T06:11:24;17.40;4.30
3976;DHT22;2002;48.812;9.180;2022-11-15T06:13:50;17.40;5.80
3976;DHT22;2002;48.812;9.180;2022-11-15T06:16:15;17.40;7.30
3976;DHT22;2002;48.812;9.180;2022-11-15T06:18:41;17.40;6.80
3976;DHT22;2002;48.812;9.180;2022-11-15T06:21:06;17.30;4.70
3976;DHT22;2002;48.812;9.180;2022-11-15T06:23:33;17.40;4.60
3976;DHT22;2002;48.812;9.180;2022-11-15T06:26:00;17.40;5.20
3976;DHT22;2002;48.812;9.180;2022-11-15T06:28:30;17.30;4.90
3976;DHT22;2002;48.812;9.180;2022-11-15T06:31:10;17.40;9.50
3976;DHT22;2002;48.812;9.180;2022-11-15T06:33:37;17.40;6.40
3976;DHT22;2002;48.812;9.180;2022-11-15T06:36:05;17.40;4.70
3976;DHT22;2002;48.812;9.180;2022-11-15T06:38:30;17.40;5.10
3976;DHT22;2002;48.812;9.180;2022-11-15T06:41:02;17.40;7.50
3976;DHT22;2002;48.812;9.180;2022-11-15T06:43:27;17.40;4.30
3976;DHT22;2002;48.812;9.180;2022-11-15T06:45:53;17.40;6.00
3976;DHT22;2002;48.812;9.180;2022-11-15T06:48:18;17.40;18.60
3976;DHT22;2002;48.812;9.180;2022-11-15T06:50:53;17.40;4.10
3976;DHT22;2002;48.812;9.180;2022-11-15T06:53:19;17.40;4.90
3976;DHT22;2002;48.812;9.180;2022-11-15T06:55:45;17.40;4.70
3976;DHT22;2002;48.812;9.180;2022-11-15T06:58:11;17.40;5.40
3976;DHT22;2002;48.812;9.180;2022-11-15T07:00:36;17.40;5.60
3976;DHT22;2002;48.812;9.180;2022-11-15T07:03:02;17.40;17.40
3976;DHT22;2002;48.812;9.180;2022-11-15T07:05:28;17.40;2.90
3976;DHT22;2002;48.812;9.180;2022-11-15T07:07:54;17.40;4.20
3976;DHT22;2002;48.812;9.180;2022-11-15T07:10:21;17.40;3.20
3976;DHT22;2002;48.812;9.180;2022-11-15T07:12:50;17.40;4.10
3976;DHT22;2002;48.812;9.180;2022-11-15T07:15:16;17.40;3.80
3976;DHT22;2002;48.812;9.180;2022-11-15T07:17:42;17.40;1.90
3976;DHT22;2002;48.812;9.180;2022-11-15T07:20:08;17.40;8.10
3976;DHT22;2002;48.812;9.180;2022-11-15T07:22:34;17.40;5.00
3976;DHT22;2002;48.812;9.180;2022-11-15T07:24:59;17.40;5.50
3976;DHT22;2002;48.812;9.180;2022-11-15T07:27:25;17.40;2.90
3976;DHT22;2002;48.812;9.180;2022-11-15T07:29:50;17.40;1.30
3976;DHT22;2002;48.812;9.180;2022-11-15T07:32:16;17.40;3.30
3976;DHT22;2002;48.812;9.180;2022-11-15T07:34:41;17.50;4.00
3976;DHT22;2002;48.812;9.180;2022-11-15T07:37:07;17.50;4.70
3976;DHT22;2002;48.812;9.180;2022-11-15T07:39:33;17.50;2.90
3976;DHT22;2002;48.812;9.180;2022-11-15T07:41:59;17.50;2.70
3976;DHT22;2002;48.812;9.180;2022-11-15T07:44:43;17.50;1.90
3976;DHT22;2002;48.812;9.180;2022-11-15T07:47:09;17.60;2.40
3976;DHT22;2002;48.812;9.180;2022-11-15T07:49:34;17.60;3.30
3976;DHT22;2002;48.812;9.180;2022-11-15T07:52:00;17.70;2.40
3976;DHT22;2002;48.812;9.180;2022-11-15T07:54:25;17.60;7.10
3976;DHT22;2002;48.812;9.180;2022-11-15T07:56:51;17.60;3.90
3976;DHT22;2002;48.812;9.180;2022-11-15T07:59:16;17.50;4.30
3976;DHT22;2002;48.812;9.180;2022-11-15T08:01:42;17.50;4.90
3976;DHT22;2002;48.812;9.180;2022-11-15T08:04:09;17.50;4.20
3976;DHT22;2002;48.812;9.180;2022-11-15T08:06:35;17.50;5.30
3976;DHT22;2002;48.812;9.180;2022-11-15T08:09:00;17.50;4.30
3976;DHT22;2002;48.812;9.180;2022-11-15T08:11:26;17.50;6.30
3976;DHT22;2002;48.812;9.180;2022-11-15T08:13:52;17.50;5.10
3976;DHT22;2002;48.812;9.180;2022-11-15T08:16:17;17.60;3.90
3976;DHT22;2002;48.812;9.180;2022-11-15T08:18:43;17.50;6.60
3976;DHT22;2002;48.812;9.180;2022-11-15T08:21:09;17.50;5.40
3976;DHT22;2002;48.812;9.180;2022-11-15T08:23:37;17.50;4.40
3976;DHT22;2002;48.812;9.180;2022-11-15T08:26:04;17.50;5.80
3976;DHT22;2002;48.812;9.180;2022-11-15T08:28:31;17.50;4.70
3976;DHT22;2002;48.812;9.180;2022-11-15T08:30:57;17.50;4.10
3976;DHT22;2002;48.812;9.180;2022-11-15T08:33:22;17.40;4.50
3976;DHT22;2002;48.812;9.180;2022-11-15T08:35:48;17.40;3.90
3976;DHT22;2002;48.812;9.180;2022-11-15T08:38:14;17.40;3.50
3976;DHT22;2002;48.812;9.180;2022-11-15T08:40:40;17.40;7.00
3976;DHT22;2002;48.812;9.180;2022-11-15T08:43:05;17.40;5.60
3976;DHT22;2002;48.812;9.180;2022-11-15T08:45:31;17.40;8.10
3976;DHT22;2002;48.812;9.180;2022-11-15T08:48:01;17.40;7.70
3976;DHT22;2002;48.812;9.180;2022-11-15T08:50:27;17.40;5.80
3976;DHT22;2002;48.812;9.180;2022-11-15T08:52:52;17.40;8.20
3976;DHT22;2002;48.812;9.180;2022-11-15T08:55:18;17.40;8.70
3976;DHT22;2002;48.812;9.180;2022-11-15T08:57:44;17.40;5.50
3976;DHT22;2002;48.812;9.180;2022-11-15T09:00:10;17.50;4.50
3976;DHT22;2002;48.812;9.180;2022-11-15T09:02:38;17.50;6.40
3976;DHT22;2002;48.812;9.180;2022-11-15T09:05:04;17.50;18.20
3976;DHT22;2002;48.812;9.180;2022-11-15T09:07:30;17.40;5.10
3976;DHT22;2002;48.812;9.180;2022-11-15T09:09:57;17.40;6.90
3976;DHT22;2002;48.812;9.180;2022-11-15T09:12:23;17.40;5.60
3976;DHT22;2002;48.812;9.180;2022-11-15T09:14:48;17.40;5.20
3976;DHT22;2002;48.812;9.180;2022-11-15T09:17:14;17.40;5.90
3976;DHT22;2002;48.812;9.180;2022-11-15T09:19:39;17.40;5.50
3976;DHT22;2002;48.812;9.180;2022-11-15T09:22:06;17.40;5.80
3976;DHT22;2002;48.812;9.180;2022-11-15T09:24:32;17.40;5.50
3976;DHT22;2002;48.812;9.180;2022-11-15T09:26:58;17.40;6.00
3976;DHT22;2002;48.812;9.180;2022-11-15T09:29:23;17.40;6.30
3976;DHT22;2002;48.812;9.180;2022-11-15T09:31:51;17.40;5.40
3976;DHT22;2002;48.812;9.180;2022-11-15T09:34:16;17.40;7.20
3976;DHT22;2002;48.812;9.180;2022-11-15T09:36:42;17.40;7.10
3976;DHT22;2002;48.812;9.180;2022-11-15T09:39:07;17.40;5.50
3976;DHT22;2002;48.812;9.180;2022-11-15T09:50:15;17.40;6.70
3976;DHT22;2002;48.812;9.180;2022-11-15T09:52:43;17.40;3.20
3976;DHT22;2002;48.812;9.180;2022-11-15T09:55:13;17.40;4.50
3976;DHT22;2002;48.812;9.180;2022-11-15T09:57:54;17.40;6.70
3976;DHT22;2002;48.812;9.180;2022-11-15T10:00:40;17.40;6.00
3976;DHT22;2002;48.812;9.180;2022-11-15T10:03:14;17.40;4.80
3976;DHT22;2002;48.812;9.180;2022-11-15T10:05:45;17.40;2.40
3976;DHT22;2002;48.812;9.180;2022-11-15T10:11:15;17.40;1.80
3976;DHT22;2002;48.812;9.180;2022-11-15T10:13:44;17.40;3.70
3976;DHT22;2002;48.812;9.180;2022-11-15T10:17:28;17.30;4.20
3976;DHT22;2002;48.812;9.180;2022-11-15T10:22:15;17.30;5.90
3976;DHT22;2002;48.812;9.180;2022-11-15T10:24:45;17.30;5.60
3976;DHT22;2002;48.812;9.180;2022-11-15T10:27:13;17.30;8.80
3976;DHT22;2002;48.812;9.180;2022-11-15T10:29:47;17.30;5.00
3976;DHT22;2002;48.812;9.180;2022-11-15T10:32:14;17.40;4.80
3976;DHT22;2002;48.812;9.180;2022-11-15T10:34:40;17.30;7.40
3976;DHT22;2002;48.812;9.180;2022-11-15T10:37:06;17.30;7.60
3976;DHT22;2002;48.812;9.180;2022-11-15T10:39:31;17.30;6.30
3976;DHT22;2002;48.812;9.180;2022-11-15T10:42:18;17.30;6.10
3976;DHT22;2002;48.812;9.180;2022-11-15T10:44:50;17.30;18.90
3976;DHT22;2002;48.812;9.180;2022-11-15T10:47:36;17.30;4.20
3976;DHT22;2002;48.812;9.180;2022-11-15T10:50:11;17.30;4.30
3976;DHT22;2002;48.812;9.180;2022-11-15T10:52:50;17.30;4.70
3976;DHT22;2002;48.812;9.180;2022-11-15T10:57:53;17.30;4.20
3976;DHT22;2002;48.812;9.180;2022-11-15T11:05:34;17.30;6.00
3976;DHT22;2002;48.812;9.180;2022-11-15T11:08:43;17.30;5.80
3976;DHT22;2002;48.812;9.180;2022-11-15T11:13:46;17.40;6.30
3976;DHT22;2002;48.812;9.180;2022-11-15T11:18:51;17.30;7.20
3976;DHT22;2002;48.812;9.180;2022-11-15T11:21:31;17.30;6.80
3976;DHT22;2002;48.812;9.180;2022-11-15T11:24:24;17.30;9.00
3976;DHT22;2002;48.812;9.180;2022-11-15T11:30:42;17.30;8.10
3976;DHT22;2002;48.812;9.180;2022-11-15T11:33:17;17.30;21.10
3976;DHT22;2002;48.812;9.180;2022-11-15T11:36:05;17.30;8.40
3976;DHT22;2002;48.812;9.180;2022-11-15T11:44:36;17.30;9.30
3976;DHT22;2002;48.812;9.180;2022-11-15T11:47:17;17.30;7.20
3976;DHT22;2002;48.812;9.180;2022-11-15T11:49:46;17.20;7.50
3976;DHT22;2002;48.812;9.180;2022-11-15T11:52:24;17.20;6.50
3976;DHT22;2002;48.812;9.180;2022-11-15T11:55:25;17.20;7.70
3976;DHT22;2002;48.812;9.180;2022-11-15T11:58:11;17.20;6.80
3976;DHT22;2002;48.812;9.180;2022-11-15T12:00:45;17.20;7.70
3976;DHT22;2002;48.812;9.180;2022-11-15T12:06:06;17.20;5.70
3976;DHT22;2002;48.812;9.180;2022-11-15T12:08:50;17.20;7.00
3976;DHT22;2002;48.812;9.180;2022-11-15T12:16:57;17.20;7.20
3976;DHT22;2002;48.812;9.180;2022-11-15T12:19:24;17.20;6.20
3976;DHT22;2002;48.812;9.180;2022-11-15T12:29:51;17.20;5.70
3976;DHT22;2002;48.812;9.180;2022-11-15T12:32:38;17.20;5.40
3976;DHT22;2002;48.812;9.180;2022-11-15T12:35:20;17.20;4.60
3976;DHT22;2002;48.812;9.180;2022-11-15T12:37:49;17.20;5.20
3976;DHT22;2002;48.812;9.180;2022-11-15T12:40:22;17.20;6.60
3976;DHT22;2002;48.812;9.180;2022-11-15T12:45:40;17.20;6.70
3976;DHT22;2002;48.812;9.180;2022-11-15T12:53:26;17.20;9.60
3976;DHT22;2002;48.812;9.180;2022-11-15T12:58:55;17.20;7.40
3976;DHT22;2002;48.812;9.180;2022-11-15T13:07:01;17.20;6.90
3976;DHT22;2002;48.812;9.180;2022-11-15T13:12:10;17.20;5.60
3976;DHT22;2002;48.812;9.180;2022-11-15T13:14:44;17.20;6.70
3976;DHT22;2002;48.812;9.180;2022-11-15T13:17:21;17.20;7.70
3976;DHT22;2002;48.812;9.180;2022-11-15T13:22:58;17.20;6.10
3976;DHT22;2002;48.812;9.180;2022-11-15T13:30:41;17.20;7.90
3976;DHT22;2002;48.812;9.180;2022-11-15T13:33:37;17.20;6.90
3976;DHT22;2002;48.812;9.180;2022-11-15T13:36:20;17.20;7.90
3976;DHT22;2002;48.812;9.180;2022-11-15T13:38:58;17.20;6.40
3976;DHT22;2002;48.812;9.180;2022-11-15T13:41:27;17.20;7.00
3976;DHT22;2002;48.812;9.180;2022-11-15T13:43:54;17.20;6.10
3976;DHT22;2002;48.812;9.180;2022-11-15T13:46:27;17.20;5.10
3976;DHT22;2002;48.812;9.180;2022-11-15T13:49:00;17.20;6.60
3976;DHT22;2002;48.812;9.180;2022-11-15T13:52:11;17.20;10.30
3976;DHT22;2002;48.812;9.180;2022-11-15T13:56:56;17.20;6.70
3976;DHT22;2002;48.812;9.180;2022-11-15T13:59:26;17.20;9.00
3976;DHT22;2002;48.812;9.180;2022-11-15T14:01:54;17.20;6.60
3976;DHT22;2002;48.812;9.180;2022-11-15T14:04:22;17.20;7.20
3976;DHT22;2002;48.812;9.180;2022-11-15T14:06:56;17.20;8.00
3976;DHT22;2002;48.812;9.180;2022-11-15T14:11:58;17.20;7.40
3976;DHT22;2002;48.812;9.180;2022-11-15T14:14:29;17.20;7.40
3976;DHT22;2002;48.812;9.180;2022-11-15T14:16:59;17.20;8.00
3976;DHT22;2002;48.812;9.180;2022-11-15T14:22:14;17.20;8.10
3976;DHT22;2002;48.812;9.180;2022-11-15T14:24:42;17.20;10.00
3976;DHT22;2002;48.812;9.180;2022-11-15T14:27:26;17.10;8.60
3976;DHT22;2002;48.812;9.180;2022-11-15T14:29:52;17.20;8.60
3976;DHT22;2002;48.812;9.180;2022-11-15T14:32:21;17.10;9.90
3976;DHT22;2002;48.812;9.180;2022-11-15T14:34:49;17.20;9.60
3976;DHT22;2002;48.812;9.180;2022-11-15T14:37:20;17.10;8.10
3976;DHT22;2002;48.812;9.180;2022-11-15T14:39:46;17.20;9.40
3976;DHT22;2002;48.812;9.180;2022-11-15T14:42:12;17.10;8.80
3976;DHT22;2002;48.812;9.180;2022-11-15T14:44:37;17.20;10.20
3976;DHT22;2002;48.812;9.180;2022-11-15T14:47:03;17.20;9.30
3976;DHT22;2002;48.812;9.180;2022-11-15T14:49:28;17.20;8.90
3976;DHT22;2002;48.812;9.180;2022-11-15T14:51:54;17.20;7.30
3976;DHT22;2002;48.812;9.180;2022-11-15T14:54:19;17.20;7.60
3976;DHT22;2002;48.812;9.180;2022-11-15T14:56:45;17.20;8.30
3976;DHT22;2002;48.812;9.180;2022-11-15T14:59:10;17.10;8.90
3976;DHT22;2002;48.812;9.180;2022-11-15T15:01:36;17.20;9.70
3976;DHT22;2002;48.812;9.180;2022-11-15T15:04:01;17.10;9.40
3976;DHT22;2002;48.812;9.180;2022-11-15T15:06:27;17.10;7.60
3976;DHT22;2002;48.812;9.180;2022-11-15T15:08:52;17.10;10.80
3976;DHT22;2002;48.812;9.180;2022-11-15T15:11:23;17.20;9.10
3976;DHT22;2002;48.812;9.180;2022-11-15T15:13:50;17.10;8.60
3976;DHT22;2002;48.812;9.180;2022-11-15T15:16:15;17.10;8.20
3976;DHT22;2002;48.812;9.180;2022-11-15T15:18:41;17.10;19.40
3976;DHT22;2002;48.812;9.180;2022-11-15T15:21:23;17.10;9.20
3976;DHT22;2002;48.812;9.180;2022-11-15T15:23:49;17.10;7.70
3976;DHT22;2002;48.812;9.180;2022-11-15T15:26:15;17.10;10.30
3976;DHT22;2002;48.812;9.180;2022-11-15T15:28:41;17.10;7.60
3976;DHT22;2002;48.812;9.180;2022-11-15T15:31:08;17.10;7.50
3976;DHT22;2002;48.812;9.180;2022-11-15T15:33:34;17.10;9.70
3976;DHT22;2002;48.812;9.180;2022-11-15T15:36:00;17.10;7.90
3976;DHT22;2002;48.812;9.180;2022-11-15T15:38:25;17.10;8.20
3976;DHT22;2002;48.812;9.180;2022-11-15T15:40:51;17.10;10.70
3976;DHT22;2002;48.812;9.180;2022-11-15T15:43:17;17.10;9.70
3976;DHT22;2002;48.812;9.180;2022-11-15T15:45:42;17.10;8.70
3976;DHT22;2002;48.812;9.180;2022-11-15T15:48:14;17.10;9.10
3976;DHT22;2002;48.812;9.180;2022-11-15T15:50:40;17.20;10.80
3976;DHT22;2002;48.812;9.180;2022-11-15T15:53:08;17.10;22.20
3976;DHT22;2002;48.812;9.180;2022-11-15T15:55:36;17.10;9.30
3976;DHT22;2002;48.812;9.180;2022-11-15T15:58:02;17.10;13.70
3976;DHT22;2002;48.812;9.180;2022-11-15T16:00:28;17.10;11.30
3976;DHT22;2002;48.812;9.180;2022-11-15T16:02:53;17.10;10.00
3976;DHT22;2002;48.812;9.180;2022-11-15T16:05:20;17.10;12.90
3976;DHT22;2002;48.812;9.180;2022-11-15T16:07:46;17.10;8.20
3976;DHT22;2002;48.812;9.180;2022-11-15T16:10:31;17.20;6.70
3976;DHT22;2002;48.812;9.180;2022-11-15T16:12:57;17.10;7.40
3976;DHT22;2002;48.812;9.180;2022-11-15T16:15:26;17.10;12.80
3976;DHT22;2002;48.812;9.180;2022-11-15T16:17:54;17.10;7.60
3976;DHT22;2002;48.812;9.180;2022-11-15T16:22:57;17.10;9.00
3976;DHT22;2002;48.812;9.180;2022-11-15T16:25:24;17.10;12.90
3976;DHT22;2002;48.812;9.180;2022-11-15T16:27:50;17.10;9.70
3976;DHT22;2002;48.812;9.180;2022-11-15T16:30:19;17.10;9.00
3976;DHT22;2002;48.812;9.180;2022-11-15T16:32:45;17.10;7.50
3976;DHT22;2002;48.812;9.180;2022-11-15T16:35:15;17.10;9.90
3976;DHT22;2002;48.812;9.180;2022-11-15T16:37:41;17.10;8.60
3976;DHT22;2002;48.812;9.180;2022-11-15T16:40:23;17.10;12.30
3976;DHT22;2002;48.812;9.180;2022-11-15T16:42:49;17.10;8.50
3976;DHT22;2002;48.812;9.180;2022-11-15T16:45:15;17.10;6.10
3976;DHT22;2002;48.812;9.180;2022-11-15T16:47:40;17.10;6.20
3976;DHT22;2002;48.812;9.180;2022-11-15T16:50:10;17.10;8.20
3976;DHT22;2002;48.812;9.180;2022-11-15T16:52:39;17.10;8.60
3976;DHT22;2002;48.812;9.180;2022-11-15T16:55:05;17.10;8.50
3976;DHT22;2002;48.812;9.180;2022-11-15T16:57:31;17.10;9.00
3976;DHT22;2002;48.812;9.180;2022-11-15T16:59:56;17.10;8.20
3976;DHT22;2002;48.812;9.180;2022-11-15T17:02:22;17.10;9.90
3976;DHT22;2002;48.812;9.180;2022-11-15T17:04:47;17.10;11.00
3976;DHT22;2002;48.812;9.180;2022-11-15T17:07:13;17.10;20.40
3976;DHT22;2002;48.812;9.180;2022-11-15T17:09:38;17.10;7.50
3976;DHT22;2002;48.812;9.180;2022-11-15T17:12:05;17.10;11.10
3976;DHT22;2002;48.812;9.180;2022-11-15T17:14:30;17.20;13.40
3976;DHT22;2002;48.812;9.180;2022-11-15T17:16:56;17.10;9.20
3976;DHT22;2002;48.812;9.180;2022-11-15T17:19:21;17.10;9.80
3976;DHT22;2002;48.812;9.180;2022-11-15T17:21:47;17.10;10.50
3976;DHT22;2002;48.812;9.180;2022-11-15T17:24:16;17.10;11.70
3976;DHT22;2002;48.812;9.180;2022-11-15T17:26:42;17.10;9.60
3976;DHT22;2002;48.812;9.180;2022-11-15T17:29:07;17.10;8.00
3976;DHT22;2002;48.812;9.180;2022-11-15T17:31:34;17.10;7.80
3976;DHT22;2002;48.812;9.180;2022-11-15T17:34:01;17.10;6.70
3976;DHT22;2002;48.812;9.180;2022-11-15T17:36:27;17.10;10.20
3976;DHT22;2002;48.812;9.180;2022-11-15T17:38:53;17.10;10.20
3976;DHT22;2002;48.812;9.180;2022-11-15T17:41:18;17.10;7.80
3976;DHT22;2002;48.812;9.180;2022-11-15T17:43:45;17.10;6.80
3976;DHT22;2002;48.812;9.180;2022-11-15T17:46:13;17.10;7.60
3976;DHT22;2002;48.812;9.180;2022-11-15T17:48:39;17.10;9.90
3976;DHT22;2002;48.812;9.180;2022-11-15T17:51:07;17.10;8.50
3976;DHT22;2002;48.812;9.180;2022-11-15T17:53:38;17.10;9.50
3976;DHT22;2002;48.812;9.180;2022-11-15T17:56:08;17.10;10.10
3976;DHT22;2002;48.812;9.180;2022-11-15T17:58:34;17.10;7.50
3976;DHT22;2002;48.812;9.180;2022-11-15T18:03:53;17.10;8.80
3976;DHT22;2002;48.812;9.180;2022-11-15T18:06:21;17.10;9.70
3976;DHT22;2002;48.812;9.180;2022-11-15T18:08:48;17.10;9.20
3976;DHT22;2002;48.812;9.180;2022-11-15T18:11:19;17.10;9.50
3976;DHT22;2002;48.812;9.180;2022-11-15T18:13:50;17.10;9.50
3976;DHT22;2002;48.812;9.180;2022-11-15T18:16:18;17.10;9.10
3976;DHT22;2002;48.812;9.180;2022-11-15T18:18:45;17.10;8.60
3976;DHT22;2002;48.812;9.180;2022-11-15T18:21:13;17.10;11.00
3976;DHT22;2002;48.812;9.180;2022-11-15T18:23:41;17.10;11.60